Time;durP1;ratioP1;P1;durP2;ratioP2;P2;SDS_P1;SDS_P2;PMS_P1;PMS_P2;Temp;Humidity;BMP_temperature;BMP_pressure;BME280_temperature;BME280_humidity;BME280_pressure;Samples;Min_cycle;Max_cycle;Signal;HPM_P1;HPM_P2
2022/03/29 00:00:38;;;;;;;51.60;29.87;;;;;;;7.03;79.26;100374.88;5081593;28;20456;-80
2022/03/29 00:03:05;;;;;;;45.10;29.37;;;;;;;7.07;78.90;100376.38;5082358;28;20482;-78
2022/03/29 00:05:33;;;;;;;48.77;30.07;;;;;;;7.11;79.14;100369.84;5082179;28;20471;-78
2022/03/29 00:08:00;;;;;;;47.97;29.20;;;;;;;7.06;79.19;100367.53;5080671;28;20467;-80
2022/03/29 00:10:27;;;;;;;51.50;31.90;;;;;;;7.11;79.04;100359.22;5081562;28;21984;-79
2022/03/29 00:12:54;;;;;;;46.50;29.30;;;;;;;7.18;78.95;100367.59;5080930;28;20478;-79
2022/03/29 00:15:22;;;;;;;50.03;30.00;;;;;;;7.23;79.06;100368.91;5081074;28;20444;-80
2022/03/29 00:17:48;;;;;;;47.33;30.53;;;;;;;7.25;78.86;100364.34;5081873;28;20437;-80
2022/03/29 00:20:15;;;;;;;44.60;28.67;;;;;;;7.25;79.05;100359.00;5080189;28;20482;-80
2022/03/29 00:22:43;;;;;;;47.00;28.33;;;;;;;7.29;78.95;100359.63;5081121;28;20542;-79
2022/03/29 00:25:11;;;;;;;41.57;28.17;;;;;;;7.30;79.04;100366.66;5081023;28;20436;-80
2022/03/29 00:27:38;;;;;;;47.90;30.10;;;;;;;7.35;79.07;100356.50;5081777;28;20444;-79
2022/03/29 00:30:06;;;;;;;50.63;30.37;;;;;;;7.42;78.92;100354.22;5081959;28;20462;-80
2022/03/29 00:32:33;;;;;;;44.67;28.47;;;;;;;7.43;78.57;100343.47;5080869;28;20456;-80
2022/03/29 00:35:00;;;;;;;44.87;29.73;;;;;;;7.50;78.50;100346.53;5081313;28;20440;-80
2022/03/29 00:37:27;;;;;;;41.00;28.30;;;;;;;7.49;78.36;100342.16;5080299;28;20488;-78
2022/03/29 00:39:55;;;;;;;46.97;29.83;;;;;;;7.53;78.18;100344.47;5081398;28;20483;-80
2022/03/29 00:42:22;;;;;;;46.30;29.80;;;;;;;7.60;78.03;100338.66;5080390;28;20879;-80
2022/03/29 00:44:49;;;;;;;46.83;28.73;;;;;;;7.27;78.67;100340.28;5082087;28;20458;-80
2022/03/29 00:47:15;;;;;;;44.80;29.07;;;;;;;7.44;78.44;100331.03;5080445;28;20880;-79
2022/03/29 00:49:42;;;;;;;44.93;28.97;;;;;;;7.38;78.20;100336.78;5081440;28;20459;-79
2022/03/29 00:52:09;;;;;;;39.47;26.90;;;;;;;7.40;78.16;100333.06;5079796;28;20514;-80
2022/03/29 00:54:40;;;;;;;47.03;27.90;;;;;;;7.45;78.10;100330.91;5080153;28;20452;-80
2022/03/29 00:57:09;;;;;;;52.73;29.03;;;;;;;7.39;78.19;100318.06;5080352;28;20518;-80
2022/03/29 00:59:36;;;;;;;48.90;28.83;;;;;;;7.34;78.54;100328.22;5081156;28;20464;-79
2022/03/29 01:02:03;;;;;;;44.40;27.73;;;;;;;7.25;79.14;100318.28;5079560;28;20475;-79
2022/03/29 01:04:30;;;;;;;46.97;28.13;;;;;;;7.39;78.86;100315.41;5080653;28;20476;-79
2022/03/29 01:06:58;;;;;;;44.17;27.53;;;;;;;7.48;78.18;100308.53;5079173;28;20479;-79
2022/03/29 01:09:26;;;;;;;41.97;26.20;;;;;;;7.48;78.15;100314.72;5080353;28;20643;-79
2022/03/29 01:11:53;;;;;;;44.40;27.20;;;;;;;7.50;78.55;100303.94;5078677;28;20476;-79
2022/03/29 01:14:21;;;;;;;43.90;28.27;;;;;;;7.24;78.94;100311.25;5080458;28;20497;-79
2022/03/29 01:19:32;;;;;;;42.07;26.67;;;;;;;7.32;78.88;100303.53;5080093;28;20550;-80
2022/03/29 01:22:02;;;;;;;41.60;27.00;;;;;;;7.37;78.86;100300.53;5078587;28;20917;-79
2022/03/29 01:24:29;;;;;;;41.37;27.97;;;;;;;7.30;78.83;100305.47;5079792;28;20425;-79
2022/03/29 01:26:58;;;;;;;37.67;25.07;;;;;;;7.26;79.04;100298.72;5080137;28;20595;-78
2022/03/29 01:29:25;;;;;;;46.23;27.33;;;;;;;7.34;78.53;100296.28;5080719;28;20444;-78
2022/03/29 01:31:53;;;;;;;36.07;24.97;;;;;;;7.44;78.17;100299.09;5077923;28;20489;-78
2022/03/29 01:34:20;;;;;;;39.20;26.37;;;;;;;7.25;78.76;100297.84;5079944;28;20451;-78
2022/03/29 01:36:47;;;;;;;44.03;27.07;;;;;;;7.38;78.42;100294.25;5079150;28;20484;-77
2022/03/29 01:39:16;;;;;;;41.47;25.80;;;;;;;7.44;78.13;100296.44;5079754;28;20482;-78
2022/03/29 01:41:43;;;;;;;39.53;26.53;;;;;;;7.32;77.36;100296.41;5079480;28;20487;-80
2022/03/29 01:44:10;;;;;;;39.20;25.90;;;;;;;7.49;77.41;100291.59;5080231;28;20525;-81
2022/03/29 01:46:38;;;;;;;41.17;26.20;;;;;;;7.65;76.62;100293.91;5079455;28;20928;-80
2022/03/29 01:49:05;;;;;;;37.30;26.10;;;;;;;7.54;76.83;100292.09;5079931;28;20448;-80
2022/03/29 01:51:32;;;;;;;39.07;27.03;;;;;;;7.50;76.77;100286.16;5078977;28;20513;-81
2022/03/29 01:54:02;;;;;;;39.40;24.37;;;;;;;7.44;76.85;100283.97;5079054;28;20459;-81
2022/03/29 01:56:32;;;;;;;40.50;26.90;;;;;;;7.43;76.94;100289.41;5078711;28;20464;-80
2022/03/29 01:58:59;;;;;;;41.00;27.50;;;;;;;7.46;76.87;100284.69;5079824;28;20548;-81
2022/03/29 02:01:26;;;;;;;36.10;24.87;;;;;;;7.41;76.84;100289.53;5078391;28;20472;-80
2022/03/29 02:03:53;;;;;;;41.53;25.40;;;;;;;7.50;76.59;100288.84;5079716;28;20977;-79
2022/03/29 02:06:20;;;;;;;42.13;27.23;;;;;;;7.25;76.71;100286.38;5079515;28;20475;-79
2022/03/29 02:08:47;;;;;;;38.00;26.87;;;;;;;7.16;77.22;100282.59;5079497;28;20448;-79
2022/03/29 02:11:16;;;;;;;37.90;26.10;;;;;;;7.03;77.79;100285.38;5079264;28;20512;-79
2022/03/29 02:13:45;;;;;;;40.67;25.40;;;;;;;7.19;77.67;100287.69;5078936;28;20838;-80
2022/03/29 02:16:11;;;;;;;39.93;24.40;;;;;;;7.39;77.07;100280.81;5079708;28;20472;-78
2022/03/29 02:18:38;;;;;;;39.37;26.13;;;;;;;7.40;76.80;100287.84;5079630;28;20440;-80
2022/03/29 02:21:05;;;;;;;41.37;24.50;;;;;;;7.46;76.33;100284.69;5078761;28;20563;-80
2022/03/29 02:23:32;;;;;;;41.10;25.13;;;;;;;7.30;76.37;100276.22;5078337;28;20474;-79
2022/03/29 02:25:59;;;;;;;35.70;22.77;;;;;;;7.23;76.33;100272.34;5078252;28;20475;-80
2022/03/29 02:28:26;;;;;;;34.07;22.57;;;;;;;7.29;75.90;100274.53;5079766;28;20505;-80
2022/03/29 02:30:54;;;;;;;35.43;23.03;;;;;;;7.26;76.01;100272.13;5078701;28;20472;-79
2022/03/29 02:33:21;;;;;;;36.23;23.00;;;;;;;7.09;76.51;100268.09;5079114;28;20464;-80
2022/03/29 02:35:48;;;;;;;32.20;21.40;;;;;;;7.16;76.03;100261.34;5078970;28;20471;-80
2022/03/29 02:38:17;;;;;;;34.57;22.70;;;;;;;7.13;76.05;100262.44;5078702;28;20502;-79
2022/03/29 02:40:44;;;;;;;34.93;23.50;;;;;;;7.06;76.42;100258.53;5078542;28;20541;-80
2022/03/29 02:43:11;;;;;;;34.23;24.50;;;;;;;6.89;76.95;100258.97;5081835;28;20939;-79
2022/03/29 02:45:38;;;;;;;39.53;24.30;;;;;;;7.07;76.33;100262.91;5082602;28;20497;-79
2022/03/29 02:48:07;;;;;;;36.13;23.97;;;;;;;6.94;77.17;100256.81;5043719;28;20434;-80
2022/03/29 02:50:34;;;;;;;31.70;20.20;;;;;;;7.11;76.45;100261.69;5066865;28;20459;-79
2022/03/29 02:53:02;;;;;;;30.30;20.87;;;;;;;7.29;75.97;100262.09;5081555;28;20560;-79
2022/03/29 02:55:30;;;;;;;37.27;22.63;;;;;;;7.33;75.53;100262.69;5082837;28;20491;-79
2022/03/29 02:57:58;;;;;;;34.87;21.93;;;;;;;7.08;76.25;100253.09;5082965;28;20432;-79
2022/03/29 03:00:25;;;;;;;33.23;23.20;;;;;;;6.95;77.17;100250.56;5081776;28;21036;-79
2022/03/29 03:02:54;;;;;;;33.90;22.73;;;;;;;7.05;76.75;100248.88;5043043;28;20445;-79
2022/03/29 03:05:24;;;;;;;33.57;22.70;;;;;;;7.16;76.57;100248.88;5043963;28;20452;-80
2022/03/29 03:07:51;;;;;;;35.97;24.30;;;;;;;7.07;76.78;100240.78;5076661;28;20452;-79
2022/03/29 03:10:18;;;;;;;35.63;23.03;;;;;;;7.10;76.66;100229.91;5082515;28;20427;-80
2022/03/29 03:12:47;;;;;;;40.90;24.30;;;;;;;6.96;77.04;100217.66;5082252;28;20484;-79
2022/03/29 03:15:16;;;;;;;33.83;22.40;;;;;;;7.01;77.38;100215.50;5075765;28;20440;-80
2022/03/29 03:17:42;;;;;;;31.83;22.53;;;;;;;7.24;76.73;100212.88;5063420;28;20425;-79
2022/03/29 03:20:10;;;;;;;34.30;22.50;;;;;;;7.24;76.35;100212.88;5068502;28;20818;-80
2022/03/29 03:22:39;;;;;;;35.43;23.90;;;;;;;7.38;75.59;100209.13;5081324;28;20497;-79
2022/03/29 03:25:07;;;;;;;33.13;22.97;;;;;;;7.24;75.76;100204.91;5082505;28;20440;-79
2022/03/29 03:27:34;;;;;;;33.90;21.50;;;;;;;7.39;75.40;100213.50;5078152;28;20444;-79
2022/03/29 03:30:01;;;;;;;35.20;22.87;;;;;;;7.22;76.18;100207.69;5062654;28;20453;-79
2022/03/29 03:32:28;;;;;;;37.23;22.50;;;;;;;7.10;76.67;100208.63;5061865;28;20473;-79
2022/03/29 03:34:54;;;;;;;37.10;22.87;;;;;;;7.13;76.64;100203.09;5063117;28;20409;-80
2022/03/29 03:37:21;;;;;;;33.37;22.20;;;;;;;7.00;77.25;100205.84;5078081;28;20472;-79
2022/03/29 03:39:49;;;;;;;34.80;23.87;;;;;;;7.01;77.45;100204.88;5082474;28;20475;-80
2022/03/29 03:42:16;;;;;;;33.70;22.63;;;;;;;7.02;77.39;100211.06;5081635;28;20475;-79
2022/03/29 03:44:43;;;;;;;37.23;23.90;;;;;;;6.91;77.51;100206.53;5081758;28;20466;-80
2022/03/29 03:47:10;;;;;;;37.60;22.97;;;;;;;6.96;77.76;100215.00;5078637;28;20550;-79
2022/03/29 03:49:37;;;;;;;35.60;23.70;;;;;;;6.98;77.52;100213.09;5081606;28;20500;-79
2022/03/29 03:52:05;;;;;;;34.60;23.03;;;;;;;6.96;77.84;100210.56;5081326;28;20483;-80
2022/03/29 03:54:33;;;;;;;37.40;24.77;;;;;;;6.92;78.16;100205.59;5081670;28;20451;-79
2022/03/29 03:57:01;;;;;;;42.20;25.77;;;;;;;6.89;78.43;100209.34;5081467;28;20483;-79
2022/03/29 03:59:28;;;;;;;39.13;24.73;;;;;;;6.93;78.51;100210.78;5082509;28;20472;-78
2022/03/29 04:01:55;;;;;;;41.67;25.90;;;;;;;6.92;78.12;100201.13;5079430;28;20577;-79
2022/03/29 04:04:22;;;;;;;39.43;24.63;;;;;;;6.75;79.26;100189.16;5082125;28;20463;-80
2022/03/29 04:06:48;;;;;;;38.83;26.53;;;;;;;7.02;78.41;100200.44;5081344;28;20916;-78
2022/03/29 04:09:15;;;;;;;39.57;25.77;;;;;;;7.12;77.83;100196.94;5081124;28;20463;-78
2022/03/29 04:11:42;;;;;;;42.03;27.10;;;;;;;7.13;77.65;100195.09;5066930;28;20512;-79
2022/03/29 04:14:10;;;;;;;42.53;27.57;;;;;;;7.18;77.51;100187.63;5073768;28;20810;-80
2022/03/29 04:16:37;;;;;;;42.30;27.23;;;;;;;7.10;78.04;100190.03;5063313;28;20468;-79
2022/03/29 04:19:05;;;;;;;40.83;26.07;;;;;;;6.84;78.27;100184.94;5061504;28;20499;-79
2022/03/29 04:21:32;;;;;;;39.90;25.67;;;;;;;6.76;79.29;100182.84;5074757;28;20548;-78
2022/03/29 04:23:58;;;;;;;41.53;24.83;;;;;;;6.97;78.81;100176.84;5079564;28;20467;-79
2022/03/29 04:26:25;;;;;;;39.53;23.43;;;;;;;7.20;77.40;100176.88;5073839;28;20488;-80
2022/03/29 04:28:52;;;;;;;40.17;25.57;;;;;;;6.93;78.16;100170.94;5061264;28;20437;-79
2022/03/29 04:31:20;;;;;;;41.40;24.10;;;;;;;7.15;77.39;100163.91;5075777;28;20488;-79
2022/03/29 04:33:47;;;;;;;39.50;24.43;;;;;;;6.78;78.28;100161.47;5061506;28;20449;-80
2022/03/29 04:36:14;;;;;;;42.97;27.77;;;;;;;6.90;78.38;100159.69;5060538;28;20440;-79
2022/03/29 04:38:41;;;;;;;43.20;27.30;;;;;;;6.84;78.41;100155.72;5058661;28;20537;-79
2022/03/29 04:41:08;;;;;;;39.17;24.73;;;;;;;7.03;77.93;100159.56;5062727;28;20539;-78
2022/03/29 04:43:34;;;;;;;41.63;25.33;;;;;;;7.09;76.91;100156.44;5064099;28;20635;-78
2022/03/29 04:46:02;;;;;;;40.20;23.97;;;;;;;7.08;76.67;100158.25;5064983;28;20517;-79
2022/03/29 04:48:30;;;;;;;39.03;23.90;;;;;;;7.15;76.75;100154.16;5080982;28;20884;-79
2022/03/29 04:50:57;;;;;;;38.87;24.63;;;;;;;6.95;77.14;100147.72;5080619;28;20471;-79
2022/03/29 04:53:24;;;;;;;34.97;23.47;;;;;;;6.54;78.21;100149.09;5079084;28;20488;-79
2022/03/29 04:55:51;;;;;;;36.10;24.50;;;;;;;6.73;77.69;100155.69;5081359;28;20878;-79
2022/03/29 04:58:18;;;;;;;39.90;24.83;;;;;;;6.95;76.54;100157.53;5082293;28;20444;-79
2022/03/29 05:00:45;;;;;;;40.37;26.40;;;;;;;7.04;76.50;100155.97;5047632;28;20500;-79
2022/03/29 05:03:11;;;;;;;41.43;26.13;;;;;;;7.08;76.43;100163.59;5059886;28;20448;-79
2022/03/29 05:05:40;;;;;;;45.70;28.60;;;;;;;6.96;76.95;100168.03;5078964;28;20557;-80
2022/03/29 05:08:07;;;;;;;37.43;23.40;;;;;;;6.97;76.98;100166.22;5082406;28;20823;-80
2022/03/29 05:10:34;;;;;;;37.10;23.60;;;;;;;7.16;76.39;100166.47;5081540;28;20467;-80
2022/03/29 05:13:01;;;;;;;38.93;24.10;;;;;;;7.20;76.11;100174.22;5079415;28;20517;-80
2022/03/29 05:15:28;;;;;;;37.00;24.37;;;;;;;7.19;75.42;100175.16;5080024;28;20459;-80
2022/03/29 05:17:54;;;;;;;39.47;24.30;;;;;;;7.05;75.72;100162.94;5080813;28;20448;-79
2022/03/29 05:20:21;;;;;;;39.10;24.00;;;;;;;6.74;76.42;100165.34;5080013;28;20470;-79
2022/03/29 05:22:51;;;;;;;39.77;23.57;;;;;;;6.78;76.87;100162.31;5079801;28;20460;-79
2022/03/29 05:25:19;;;;;;;42.70;24.30;;;;;;;6.84;76.77;100160.16;5080133;28;20454;-79
2022/03/29 05:27:46;;;;;;;37.20;24.03;;;;;;;6.69;77.40;100157.72;5080769;28;20458;-80
2022/03/29 05:30:14;;;;;;;37.20;24.53;;;;;;;6.71;77.64;100161.09;5081753;28;20429;-80
2022/03/29 05:32:41;;;;;;;35.00;23.10;;;;;;;6.83;76.93;100164.63;5081426;28;20456;-80
2022/03/29 05:35:09;;;;;;;35.53;21.90;;;;;;;7.04;76.47;100164.78;5082291;28;20448;-80
2022/03/29 05:37:36;;;;;;;38.90;24.60;;;;;;;7.02;76.21;100156.06;5082306;28;20436;-80
2022/03/29 05:40:06;;;;;;;36.90;23.07;;;;;;;6.95;76.40;100158.38;5082458;28;20464;-80
2022/03/29 05:42:37;;;;;;;36.60;21.70;;;;;;;7.06;76.06;100164.66;5084537;22;20539;-70
2022/03/29 05:45:05;;;;;;;35.77;23.67;;;;;;;6.95;75.49;100161.03;5060606;28;20464;-70
2022/03/29 05:50:28;;;;;;;35.23;22.20;;;;;;;7.01;75.38;100175.63;4997299;28;20501;-70
2022/03/29 05:52:55;;;;;;;36.10;23.90;;;;;;;7.11;74.70;100165.97;5045302;28;20448;-69
2022/03/29 05:55:24;;;;;;;40.40;23.43;;;;;;;7.03;74.73;100171.06;5060283;28;20435;-70
2022/03/29 05:57:52;;;;;;;36.03;23.00;;;;;;;6.92;74.85;100168.38;5060701;28;20456;-69
2022/03/29 06:00:21;;;;;;;32.03;22.03;;;;;;;6.50;76.38;100158.28;5059884;28;21198;-69
2022/03/29 06:02:47;;;;;;;36.70;22.57;;;;;;;6.40;76.36;100159.94;5060328;28;20449;-69
2022/03/29 06:05:14;;;;;;;36.77;23.67;;;;;;;6.36;75.88;100161.16;5059979;28;20444;-69
2022/03/29 06:07:41;;;;;;;34.57;21.30;;;;;;;6.62;75.06;100163.63;5056648;28;20842;-69
2022/03/29 06:10:08;;;;;;;33.33;21.80;;;;;;;6.48;75.37;100170.00;5055053;28;20457;-69
2022/03/29 06:12:37;;;;;;;34.17;22.47;;;;;;;6.38;76.16;100168.03;5059841;28;20464;-69
2022/03/29 06:15:05;;;;;;;37.27;22.97;;;;;;;6.58;75.37;100168.34;5060301;28;20462;-70
2022/03/29 06:17:32;;;;;;;35.70;23.10;;;;;;;6.81;74.47;100169.22;5055911;28;20461;-69
2022/03/29 06:19:59;;;;;;;41.97;24.80;;;;;;;6.93;74.11;100176.25;5058921;28;20994;-69
2022/03/29 06:22:26;;;;;;;37.00;22.80;;;;;;;6.57;74.92;100178.09;5058831;28;20567;-69
2022/03/29 06:24:52;;;;;;;38.03;24.03;;;;;;;6.76;74.28;100174.88;5057091;28;20477;-69
2022/03/29 06:27:19;;;;;;;33.60;21.13;;;;;;;6.71;74.27;100171.72;5059361;28;20503;-69
2022/03/29 06:29:47;;;;;;;40.10;24.73;;;;;;;6.78;74.66;100183.56;5059847;28;20440;-70
2022/03/29 06:32:14;;;;;;;34.63;23.30;;;;;;;7.12;73.94;100180.97;5057898;28;20472;-69
2022/03/29 06:34:41;;;;;;;34.00;24.30;;;;;;;7.19;73.49;100176.03;5056643;28;20437;-69
2022/03/29 06:37:09;;;;;;;38.53;23.97;;;;;;;7.22;73.04;100174.94;5058368;28;20514;-70
2022/03/29 06:39:36;;;;;;;41.00;24.70;;;;;;;7.01;73.61;100172.13;5059382;28;20548;-70
2022/03/29 06:42:03;;;;;;;41.70;26.00;;;;;;;6.73;74.17;100163.66;5063469;28;20515;-70
2022/03/29 06:44:33;;;;;;;34.67;22.70;;;;;;;6.57;75.24;100161.31;5025915;28;20451;-70
2022/03/29 06:47:01;;;;;;;39.13;23.87;;;;;;;7.10;73.77;100159.00;5019440;28;20514;-69
2022/03/29 06:49:28;;;;;;;35.83;23.50;;;;;;;7.10;73.59;100153.66;5019601;28;20993;-70
2022/03/29 06:51:55;;;;;;;37.73;23.70;;;;;;;7.23;73.14;100163.34;5019364;28;20467;-70
2022/03/29 06:54:22;;;;;;;37.80;24.83;;;;;;;7.31;72.50;100159.09;5019474;28;20969;-70
2022/03/29 06:56:49;;;;;;;38.33;24.27;;;;;;;7.03;72.78;100157.78;5019779;28;20467;-70
2022/03/29 06:59:16;;;;;;;37.73;23.37;;;;;;;6.69;74.28;100160.38;5020177;28;21032;-70
2022/03/29 07:01:43;;;;;;;38.67;24.27;;;;;;;7.05;73.87;100153.19;5019631;28;20959;-70
2022/03/29 07:04:11;;;;;;;41.87;24.80;;;;;;;7.19;73.07;100162.72;5020202;28;20454;-70
2022/03/29 07:06:38;;;;;;;35.40;23.60;;;;;;;7.13;73.10;100152.56;5019320;28;20475;-70
2022/03/29 07:11:49;;;;;;;36.77;23.47;;;;;;;7.23;71.78;100144.72;5019882;28;20494;-69
2022/03/29 07:14:16;;;;;;;37.27;22.70;;;;;;;7.45;70.45;100147.34;5019954;28;20486;-70
2022/03/29 07:16:45;;;;;;;39.77;23.43;;;;;;;7.77;69.80;100140.41;5019157;28;20481;-70
2022/03/29 07:19:13;;;;;;;36.60;24.23;;;;;;;7.97;68.83;100141.41;5019625;28;20502;-70
2022/03/29 07:21:42;;;;;;;39.93;25.00;;;;;;;7.94;68.57;100141.69;5019418;28;20478;-69
2022/03/29 07:24:09;;;;;;;36.57;21.90;;;;;;;7.65;69.46;100140.41;5018970;28;20454;-69
2022/03/29 07:26:37;;;;;;;42.37;24.23;;;;;;;8.01;69.32;100142.88;5019136;28;20514;-70
2022/03/29 07:29:04;;;;;;;42.20;24.33;;;;;;;7.72;69.58;100138.97;5020692;28;20470;-70
2022/03/29 07:31:31;;;;;;;39.30;24.20;;;;;;;7.17;71.86;100140.75;5023022;28;20481;-70
2022/03/29 07:33:58;;;;;;;38.40;23.67;;;;;;;7.70;70.45;100142.72;5022614;28;20525;-70
2022/03/29 07:36:26;;;;;;;36.33;23.10;;;;;;;7.90;69.67;100141.94;5022313;28;20557;-70
2022/03/29 07:38:53;;;;;;;34.40;22.60;;;;;;;8.19;68.79;100138.66;5022230;28;20545;-70
2022/03/29 07:41:20;;;;;;;41.63;24.83;;;;;;;8.32;68.54;100141.16;5021507;28;20475;-70
2022/03/29 07:43:47;;;;;;;39.10;26.47;;;;;;;8.16;68.87;100143.41;5036885;28;20473;-70
2022/03/29 07:46:14;;;;;;;37.97;24.67;;;;;;;8.13;68.74;100146.34;5038416;28;20505;-70
2022/03/29 07:48:40;;;;;;;40.23;23.93;;;;;;;8.02;69.17;100145.41;5025249;28;20461;-70
2022/03/29 07:51:10;;;;;;;38.43;24.30;;;;;;;8.03;70.13;100141.75;5022524;28;20558;-70
2022/03/29 07:53:38;;;;;;;34.53;22.23;;;;;;;7.59;71.10;100143.59;5022226;28;20534;-70
2022/03/29 07:56:05;;;;;;;38.30;24.70;;;;;;;7.59;71.18;100137.44;5021825;28;20537;-69
2022/03/29 07:58:32;;;;;;;41.27;24.30;;;;;;;7.84;70.24;100145.09;5022516;28;20473;-69
2022/03/29 08:01:00;;;;;;;34.60;22.33;;;;;;;7.72;69.74;100140.75;5021859;28;20486;-69
2022/03/29 08:03:32;;;;;;;30.80;22.00;;;;;;;7.70;69.71;100143.53;5022173;28;20450;-69
2022/03/29 08:05:59;;;;;;;34.17;22.17;;;;;;;8.11;68.81;100146.47;5021826;28;20474;-69
2022/03/29 08:08:26;;;;;;;36.17;24.23;;;;;;;8.04;68.95;100150.59;5021503;28;20470;-69
2022/03/29 08:10:54;;;;;;;35.63;22.50;;;;;;;8.09;68.61;100135.94;5021881;28;20474;-69
2022/03/29 08:13:21;;;;;;;31.67;21.30;;;;;;;8.39;67.53;100136.16;5022151;28;20449;-69
2022/03/29 08:15:50;;;;;;;35.60;22.67;;;;;;;8.36;66.25;100136.41;5021549;28;20478;-69
2022/03/29 08:18:17;;;;;;;33.60;22.50;;;;;;;8.09;67.53;100125.28;5022363;28;20449;-69
2022/03/29 08:20:45;;;;;;;32.77;21.73;;;;;;;8.52;66.47;100138.66;5021652;28;20485;-69
2022/03/29 08:23:12;;;;;;;39.07;22.33;;;;;;;7.81;67.68;100133.84;5021486;28;20458;-69
2022/03/29 08:25:42;;;;;;;32.93;19.70;;;;;;;8.12;67.44;100129.50;5021914;28;20537;-69
2022/03/29 08:28:10;;;;;;;35.43;21.67;;;;;;;8.43;66.48;100132.28;5022287;28;20439;-69
2022/03/29 08:30:37;;;;;;;29.07;20.03;;;;;;;8.51;65.54;100132.50;5021044;28;20462;-69
2022/03/29 08:33:04;;;;;;;41.10;21.33;;;;;;;8.34;65.35;100131.22;5021612;28;20469;-69
2022/03/29 08:35:32;;;;;;;31.97;20.70;;;;;;;8.22;66.05;100133.09;5021340;28;20472;-69
2022/03/29 08:37:59;;;;;;;33.27;20.87;;;;;;;8.01;66.05;100132.22;5021536;28;20486;-69
2022/03/29 08:40:27;;;;;;;32.03;20.70;;;;;;;8.25;66.31;100132.00;5020648;28;20439;-69
2022/03/29 08:42:57;;;;;;;32.50;21.80;;;;;;;8.20;66.82;100135.03;5021236;28;20501;-69
2022/03/29 08:45:28;;;;;;;30.33;21.10;;;;;;;7.99;66.44;100136.84;5021495;28;20442;-69
2022/03/29 08:47:56;;;;;;;33.70;20.67;;;;;;;7.40;67.06;100149.53;5022339;28;20427;-69
2022/03/29 08:50:24;;;;;;;27.67;19.10;;;;;;;7.21;67.98;100144.00;5020888;28;20419;-69
2022/03/29 08:52:52;;;;;;;32.83;22.13;;;;;;;7.96;66.25;100139.75;5021240;28;20451;-69
2022/03/29 08:55:19;;;;;;;29.57;19.70;;;;;;;8.17;65.11;100129.13;5020832;28;20906;-69
2022/03/29 08:57:48;;;;;;;29.60;19.70;;;;;;;8.74;63.50;100135.84;5021932;28;20426;-69
2022/03/29 09:00:17;;;;;;;30.63;19.30;;;;;;;9.51;61.82;100136.31;5021102;28;20454;-69
2022/03/29 09:02:45;;;;;;;30.47;20.20;;;;;;;9.45;61.42;100126.19;5021391;28;20498;-70
2022/03/29 09:05:13;;;;;;;27.47;19.47;;;;;;;9.55;60.82;100121.72;5021294;28;20430;-69
2022/03/29 09:07:48;;;;;;;31.20;21.10;;;;;;;9.14;62.49;100132.38;5021092;28;20439;-69
2022/03/29 09:10:14;;;;;;;30.77;20.17;;;;;;;9.37;62.62;100129.53;5020914;28;20434;-69
2022/03/29 09:12:41;;;;;;;32.70;20.60;;;;;;;9.48;61.31;100120.56;5021510;28;20485;-69
2022/03/29 09:15:09;;;;;;;30.97;20.00;;;;;;;8.99;62.23;100126.59;5021466;28;20431;-69
2022/03/29 09:17:38;;;;;;;30.00;19.73;;;;;;;9.45;60.90;100128.84;5021684;28;20477;-69
2022/03/29 09:20:10;;;;;;;29.03;20.20;;;;;;;9.60;60.41;100116.81;5020913;28;20565;-69
2022/03/29 09:22:43;;;;;;;39.63;22.60;;;;;;;9.16;60.60;100116.25;5020015;28;21159;-69
2022/03/29 09:25:12;;;;;;;33.90;21.90;;;;;;;9.14;60.90;100116.38;5020953;28;20434;-69
2022/03/29 09:27:58;;;;;;;29.57;20.30;;;;;;;9.55;60.09;100116.38;5021019;28;20461;-69
2022/03/29 09:30:28;;;;;;;30.23;20.27;;;;;;;9.87;59.50;100118.81;5020484;28;20465;-69
2022/03/29 09:32:58;;;;;;;31.50;19.90;;;;;;;10.15;59.00;100113.59;5020735;28;20455;-69
2022/03/29 09:35:26;;;;;;;30.77;19.87;;;;;;;10.01;59.57;100111.38;5020703;28;20431;-69
2022/03/29 09:37:53;;;;;;;31.00;20.67;;;;;;;9.91;58.74;100104.22;5020532;28;20454;-69
2022/03/29 09:40:20;;;;;;;27.60;19.80;;;;;;;10.53;58.06;100104.72;5020717;28;20439;-70
2022/03/29 09:43:06;;;;;;;37.13;22.83;;;;;;;11.02;55.91;100103.75;5026731;28;20494;-70
2022/03/29 09:45:47;;;;;;;28.50;18.50;;;;;;;11.02;55.67;100098.38;5040142;28;20492;-69
2022/03/29 09:48:27;;;;;;;30.43;20.47;;;;;;;11.78;54.68;100098.09;5040645;28;20440;-69
2022/03/29 09:50:56;;;;;;;27.90;20.30;;;;;;;10.32;57.23;100106.75;5040088;28;21020;-69
2022/03/29 09:53:40;;;;;;;32.40;21.27;;;;;;;11.13;55.17;100103.56;5039536;28;20449;-70
2022/03/29 09:56:10;;;;;;;32.63;21.70;;;;;;;11.37;53.48;100100.34;5039818;28;20468;-70
2022/03/29 09:58:37;;;;;;;28.47;20.80;;;;;;;11.87;52.91;100099.88;5040581;28;20430;-70
2022/03/29 10:01:04;;;;;;;26.07;19.87;;;;;;;12.77;50.86;100099.75;5040030;28;20493;-70
2022/03/29 10:03:33;;;;;;;28.00;20.10;;;;;;;12.83;49.48;100100.97;5040146;28;20454;-70
2022/03/29 10:06:04;;;;;;;25.70;20.10;;;;;;;12.42;50.39;100100.69;5039829;28;20536;-70
2022/03/29 10:11:18;;;;;;;26.83;18.80;;;;;;;13.43;47.93;100100.09;5040146;28;20520;-70
2022/03/29 10:13:45;;;;;;;27.87;20.23;;;;;;;12.11;51.65;100095.75;5039975;28;20450;-70
2022/03/29 10:16:13;;;;;;;30.13;21.87;;;;;;;12.32;52.08;100097.25;5040056;28;20532;-70
2022/03/29 10:18:42;;;;;;;29.63;21.27;;;;;;;13.37;47.99;100095.38;5039973;28;20468;-70
2022/03/29 10:21:13;;;;;;;24.90;18.80;;;;;;;15.21;43.02;100090.47;5039961;28;20584;-70
2022/03/29 10:23:40;;;;;;;26.27;19.93;;;;;;;17.00;39.13;100088.47;5039859;28;20453;-70
2022/03/29 10:26:08;;;;;;;27.80;20.93;;;;;;;16.91;37.76;100087.72;5039518;28;20984;-70
2022/03/29 10:28:35;;;;;;;25.83;18.10;;;;;;;16.01;40.29;100083.13;5040493;28;20461;-70
2022/03/29 10:31:02;;;;;;;25.40;20.30;;;;;;;15.39;42.25;100074.03;5039958;28;20473;-70
2022/03/29 10:33:31;;;;;;;29.50;20.40;;;;;;;15.47;42.11;100072.31;5040053;28;20545;-70
2022/03/29 10:36:05;;;;;;;22.97;19.10;;;;;;;16.67;39.53;100069.88;5039661;28;21043;-70
2022/03/29 10:39:01;;;;;;;26.83;19.67;;;;;;;16.71;39.75;100071.19;5039733;28;20449;-70
2022/03/29 10:41:50;;;;;;;26.87;20.10;;;;;;;16.26;40.48;100055.94;5039510;28;20517;-70
2022/03/29 10:44:17;;;;;;;25.67;21.03;;;;;;;17.12;39.14;100059.13;5040085;28;20472;-70
2022/03/29 10:46:46;;;;;;;25.57;19.67;;;;;;;15.57;40.92;100052.25;5039092;28;20473;-71
2022/03/29 10:49:17;;;;;;;26.13;20.80;;;;;;;16.37;39.85;100055.53;5039805;28;20441;-70
2022/03/29 10:51:44;;;;;;;24.87;20.10;;;;;;;15.89;40.57;100052.22;5039490;28;20504;-70
2022/03/29 10:54:41;;;;;;;26.50;20.47;;;;;;;16.04;40.12;100044.16;5039163;28;20544;-70
2022/03/29 10:57:08;;;;;;;26.27;19.77;;;;;;;16.34;39.79;100045.09;4982835;28;20477;-69
2022/03/29 10:59:36;;;;;;;31.87;21.20;;;;;;;16.28;38.72;100046.63;5039910;28;20924;-70
2022/03/29 11:02:14;;;;;;;25.47;19.67;;;;;;;16.44;39.35;100040.28;5039488;28;20485;-73
2022/03/29 11:05:02;;;;;;;31.23;19.43;;;;;;;18.21;36.07;100033.84;5042605;28;20433;-70
2022/03/29 11:07:30;;;;;;;26.53;20.67;;;;;;;17.13;38.18;100037.31;5029255;28;20545;-70
2022/03/29 11:10:12;;;;;;;24.90;21.23;;;;;;;17.38;36.38;100039.69;5043100;28;20525;-72
2022/03/29 11:12:43;;;;;;;27.30;21.40;;;;;;;17.50;35.48;100018.41;5022730;28;20498;-70
2022/03/29 11:15:46;;;;;;;27.50;20.10;;;;;;;17.27;36.06;100016.72;5023757;28;20450;-70
2022/03/29 11:18:50;;;;;;;24.27;19.83;;;;;;;17.50;37.05;100011.13;5043572;28;20500;-70
2022/03/29 11:21:31;;;;;;;26.00;20.93;;;;;;;14.92;41.33;100012.19;5042536;28;20508;-70
2022/03/29 11:23:59;;;;;;;34.30;22.47;;;;;;;15.65;40.78;100007.38;5042481;28;20473;-70
2022/03/29 11:26:28;;;;;;;30.20;20.63;;;;;;;18.03;36.33;100005.41;5043167;28;20523;-71
2022/03/29 11:28:57;;;;;;;25.57;20.03;;;;;;;18.16;37.39;100002.00;5042839;28;20418;-71
2022/03/29 11:31:25;;;;;;;25.30;20.37;;;;;;;18.40;35.36;99991.72;5042835;28;20511;-70
2022/03/29 11:33:56;;;;;;;29.33;20.90;;;;;;;17.72;35.88;99992.19;5043007;28;20446;-70